createdAt,value
2023-10-23T00:01:59.027Z,11.40
2023-10-23T00:04:26.253Z,11.39
2023-10-23T00:06:53.474Z,11.38
2023-10-23T00:09:21.561Z,11.35
2023-10-23T00:11:48.614Z,11.34
2023-10-23T00:14:15.592Z,11.33
2023-10-23T00:16:42.614Z,11.32
2023-10-23T00:19:09.612Z,11.33
2023-10-23T00:21:36.641Z,11.33
2023-10-23T00:24:03.912Z,11.32
2023-10-23T00:26:30.869Z,11.32
2023-10-23T00:28:59.127Z,11.32
2023-10-23T00:31:26.200Z,11.32
2023-10-23T00:33:53.369Z,11.33
2023-10-23T00:36:20.551Z,11.33
2023-10-23T00:38:47.668Z,11.33
2023-10-23T00:41:15.382Z,11.34
2023-10-23T00:43:42.529Z,11.33
2023-10-23T00:46:16.125Z,11.32
2023-10-23T00:48:44.137Z,11.32
2023-10-23T00:51:13.390Z,11.30
2023-10-23T00:53:42.821Z,11.29
2023-10-23T00:56:11.820Z,11.28
2023-10-23T00:58:41.435Z,11.27
2023-10-23T01:01:14.255Z,11.26
2023-10-23T01:03:42.933Z,11.25
2023-10-23T01:06:11.154Z,11.25
2023-10-23T01:08:38.750Z,11.25
2023-10-23T01:11:06.430Z,11.24
2023-10-23T01:13:33.586Z,11.25
2023-10-23T01:16:00.572Z,11.25
2023-10-23T01:18:27.720Z,11.24
2023-10-23T01:20:54.857Z,11.25
2023-10-23T01:23:29.686Z,11.21
2023-10-23T01:25:56.667Z,11.18
2023-10-23T01:28:23.685Z,11.16
2023-10-23T01:30:50.832Z,11.15
2023-10-23T01:33:18.069Z,11.12
2023-10-23T01:35:45.260Z,11.10
2023-10-23T01:38:15.809Z,11.08
2023-10-23T01:40:42.814Z,11.07
2023-10-23T01:43:09.845Z,11.05
2023-10-23T01:45:37.347Z,11.03
2023-10-23T01:48:05.215Z,11.01
2023-10-23T01:50:32.344Z,11.00
2023-10-23T01:52:59.333Z,10.99
2023-10-23T01:55:26.337Z,10.95
2023-10-23T01:57:53.334Z,10.93
2023-10-23T02:00:20.447Z,10.92
2023-10-23T02:02:47.547Z,10.89
2023-10-23T02:05:14.596Z,10.88
2023-10-23T02:07:41.629Z,10.86
2023-10-23T02:10:09.278Z,10.85
2023-10-23T02:12:36.476Z,10.83
2023-10-23T02:15:05.300Z,10.80
2023-10-23T02:17:33.250Z,10.75
2023-10-23T02:20:00.522Z,10.74
2023-10-23T02:22:27.598Z,10.70
2023-10-23T02:24:54.704Z,10.66
2023-10-23T02:27:21.745Z,10.64
2023-10-23T02:29:48.709Z,10.62
2023-10-23T02:32:15.971Z,10.61
2023-10-23T02:34:44.175Z,10.60
2023-10-23T02:37:11.206Z,10.56
2023-10-23T02:39:38.534Z,10.55
2023-10-23T02:42:05.905Z,10.51
2023-10-23T02:44:32.893Z,10.51
2023-10-23T02:46:59.889Z,10.46
2023-10-23T02:49:26.912Z,10.46
2023-10-23T02:51:54.024Z,10.44
2023-10-23T02:54:21.125Z,10.41
2023-10-23T02:56:48.171Z,10.35
2023-10-23T02:59:15.237Z,10.35
2023-10-23T03:01:42.358Z,10.32
2023-10-23T03:04:09.530Z,10.31
2023-10-23T03:06:36.672Z,10.29
2023-10-23T03:09:04.449Z,10.30
2023-10-23T03:11:32.145Z,10.30
2023-10-23T03:14:02.169Z,10.30
2023-10-23T03:16:30.373Z,10.30
2023-10-23T03:18:57.481Z,10.29
2023-10-23T03:21:24.473Z,10.28
2023-10-23T03:23:51.904Z,10.28
2023-10-23T03:26:19.056Z,10.29
2023-10-23T03:28:46.164Z,10.31
2023-10-23T03:31:13.269Z,10.31
2023-10-23T03:33:41.344Z,10.30
2023-10-23T03:36:08.661Z,10.30
2023-10-23T03:38:35.821Z,10.30
2023-10-23T03:41:03.186Z,10.30
2023-10-23T03:43:30.249Z,10.31
2023-10-23T03:46:01.847Z,10.31
2023-10-23T03:48:28.983Z,10.30
2023-10-23T03:50:59.940Z,10.30
2023-10-23T03:53:26.903Z,10.26
2023-10-23T03:55:53.902Z,10.26
2023-10-23T03:58:20.972Z,10.26
2023-10-23T04:00:52.058Z,10.25
2023-10-23T04:03:19.055Z,10.24
2023-10-23T04:05:46.120Z,10.24
2023-10-23T04:08:13.185Z,10.23
2023-10-23T04:10:49.642Z,10.24
2023-10-23T04:13:17.467Z,10.24
2023-10-23T04:15:58.802Z,10.21
2023-10-23T04:18:26.849Z,10.20
2023-10-23T04:21:07.564Z,10.19
2023-10-23T04:23:38.743Z,10.19
2023-10-23T04:26:07.504Z,10.19
2023-10-23T04:28:35.301Z,10.18
2023-10-23T04:31:02.594Z,10.17
2023-10-23T04:33:29.622Z,10.16
2023-10-23T04:35:58.525Z,10.15
2023-10-23T04:38:28.779Z,10.14
2023-10-23T04:40:55.919Z,10.15
2023-10-23T04:43:23.586Z,10.13
2023-10-23T04:45:51.022Z,10.13
2023-10-23T04:48:18.027Z,10.10
2023-10-23T04:50:44.993Z,10.07
2023-10-23T04:53:12.021Z,10.06
2023-10-23T04:55:41.617Z,10.04
2023-10-23T04:58:10.302Z,10.02
2023-10-23T05:00:39.257Z,10.02
2023-10-23T05:03:07.137Z,9.99
2023-10-23T05:05:35.151Z,9.98
2023-10-23T05:08:02.166Z,9.94
2023-10-23T05:10:30.288Z,9.93
2023-10-23T05:12:58.151Z,9.92
2023-10-23T05:15:25.495Z,9.93
2023-10-23T05:17:52.696Z,9.92
2023-10-23T05:20:19.820Z,9.94
2023-10-23T05:22:46.779Z,9.94
2023-10-23T05:25:13.893Z,9.94
2023-10-23T05:27:40.986Z,9.94
2023-10-23T05:30:08.763Z,9.95
2023-10-23T05:32:36.236Z,9.94
2023-10-23T05:35:05.256Z,9.94
2023-10-23T05:37:36.260Z,9.94
2023-10-23T05:40:05.831Z,9.94
2023-10-23T05:42:33.523Z,9.96
2023-10-23T05:45:01.438Z,9.96
2023-10-23T05:47:29.553Z,9.96
2023-10-23T05:49:56.590Z,9.98
2023-10-23T05:52:23.635Z,9.98
2023-10-23T05:54:50.637Z,9.99
2023-10-23T05:57:17.656Z,10.01
2023-10-23T05:59:44.647Z,10.02
2023-10-23T06:02:13.945Z,10.02
2023-10-23T06:04:45.912Z,10.02
2023-10-23T06:07:14.099Z,10.03
2023-10-23T06:09:41.909Z,10.03
2023-10-23T06:12:10.443Z,10.03
2023-10-23T06:14:37.768Z,10.04
2023-10-23T06:17:04.970Z,10.05
2023-10-23T06:19:32.743Z,10.05
2023-10-23T06:22:00.558Z,10.07
2023-10-23T06:24:28.456Z,10.09
2023-10-23T06:26:55.549Z,10.10
2023-10-23T06:29:22.577Z,10.10
2023-10-23T06:31:49.620Z,10.13
2023-10-23T06:34:16.631Z,10.13
2023-10-23T06:36:44.404Z,10.12
2023-10-23T06:39:13.837Z,10.12
2023-10-23T06:41:40.862Z,10.12
2023-10-23T06:44:07.855Z,10.13
2023-10-23T06:46:35.202Z,10.13
2023-10-23T06:49:02.220Z,10.12
2023-10-23T06:51:29.188Z,10.11
2023-10-23T06:53:56.185Z,10.10
2023-10-23T06:56:23.492Z,10.12
2023-10-23T06:58:50.531Z,10.14
2023-10-23T07:01:23.710Z,10.13
2023-10-23T07:03:57.554Z,10.16
2023-10-23T07:06:24.713Z,10.18
2023-10-23T07:08:51.791Z,10.22
2023-10-23T07:11:23.532Z,10.25
2023-10-23T07:13:50.536Z,10.29
2023-10-23T07:16:17.781Z,10.34
2023-10-23T07:18:46.517Z,10.41
2023-10-23T07:21:16.172Z,10.45
2023-10-23T07:23:43.491Z,10.51
2023-10-23T07:26:13.394Z,10.54
2023-10-23T07:28:41.635Z,10.55
2023-10-23T07:31:10.469Z,10.56
2023-10-23T07:33:37.992Z,10.57
2023-10-23T07:36:10.223Z,10.55
2023-10-23T07:38:39.492Z,10.55
2023-10-23T07:41:06.497Z,10.56
2023-10-23T07:43:33.709Z,10.58
2023-10-23T07:46:16.703Z,10.59
2023-10-23T07:48:45.490Z,10.60
2023-10-23T07:51:12.694Z,10.62
2023-10-23T07:53:39.754Z,10.64
2023-10-23T07:56:07.199Z,10.66
2023-10-23T07:58:34.795Z,10.69
2023-10-23T08:01:09.934Z,10.71
2023-10-23T08:03:37.951Z,10.74
2023-10-23T08:06:08.438Z,10.77
2023-10-23T08:08:37.446Z,10.80
2023-10-23T08:11:06.551Z,10.81
2023-10-23T08:13:34.760Z,10.84
2023-10-23T08:16:04.528Z,10.85
2023-10-23T08:18:38.954Z,10.88
2023-10-23T08:21:12.333Z,10.88
2023-10-23T08:23:41.135Z,10.91
2023-10-23T08:26:08.444Z,10.93
2023-10-23T08:28:58.368Z,10.96
2023-10-23T08:31:37.031Z,11.00
2023-10-23T08:34:08.024Z,11.06
2023-10-23T08:36:35.523Z,11.11
2023-10-23T08:39:04.106Z,11.16
2023-10-23T08:41:32.605Z,11.21
2023-10-23T08:44:00.035Z,11.22
2023-10-23T08:46:32.999Z,11.26
2023-10-23T08:49:04.982Z,11.29
2023-10-23T08:51:32.485Z,11.33
2023-10-23T08:54:11.853Z,11.36
2023-10-23T08:56:43.391Z,11.42
2023-10-23T08:59:11.983Z,11.43
2023-10-23T09:01:39.558Z,11.46
2023-10-23T09:04:08.302Z,11.51
2023-10-23T09:06:36.914Z,11.57
2023-10-23T09:09:08.235Z,11.60
2023-10-23T09:11:39.782Z,11.64
2023-10-23T09:14:06.788Z,11.71
2023-10-23T09:16:34.177Z,11.80
2023-10-23T09:19:01.341Z,11.88
2023-10-23T09:21:29.098Z,11.95
2023-10-23T09:24:04.404Z,12.03
2023-10-23T09:26:31.473Z,12.10
2023-10-23T09:28:58.486Z,12.18
2023-10-23T09:31:25.647Z,12.24
2023-10-23T09:33:52.967Z,12.31
2023-10-23T09:36:21.861Z,12.37
2023-10-23T09:39:00.858Z,12.42
2023-10-23T09:41:29.103Z,12.46
2023-10-23T09:44:01.776Z,12.50
2023-10-23T09:46:30.411Z,12.53
2023-10-23T09:49:04.580Z,12.54
2023-10-23T09:51:41.308Z,12.53
2023-10-23T09:54:16.863Z,12.55
2023-10-23T09:56:50.023Z,12.59
2023-10-23T09:59:20.102Z,12.58
2023-10-23T10:01:51.528Z,12.57
2023-10-23T10:04:31.288Z,12.52
2023-10-23T10:07:23.646Z,12.52
2023-10-23T10:09:51.220Z,12.52
2023-10-23T10:12:19.811Z,12.54
2023-10-23T10:14:48.152Z,12.56
2023-10-23T10:17:20.440Z,12.58
2023-10-23T10:19:48.494Z,12.55
2023-10-23T10:22:29.473Z,12.51
2023-10-23T10:24:57.378Z,12.51
2023-10-23T10:27:26.170Z,12.52
2023-10-23T10:29:53.272Z,12.49
2023-10-23T10:32:23.983Z,12.48
2023-10-23T10:34:57.812Z,12.45
2023-10-23T10:37:32.283Z,12.48
2023-10-23T10:39:59.263Z,12.47
2023-10-23T10:42:30.677Z,12.48
2023-10-23T10:45:08.971Z,12.47
2023-10-23T10:47:38.258Z,12.49
2023-10-23T10:50:06.340Z,12.52
2023-10-23T10:52:38.943Z,12.51
2023-10-23T10:55:10.309Z,12.53
2023-10-23T10:57:43.846Z,12.57
2023-10-23T11:00:13.015Z,12.61
2023-10-23T11:02:40.880Z,12.64
2023-10-23T11:05:13.044Z,12.66
2023-10-23T11:07:40.175Z,12.70
2023-10-23T11:10:08.158Z,12.72
2023-10-23T11:12:35.217Z,12.73
2023-10-23T11:15:05.222Z,12.76
2023-10-23T11:17:32.344Z,12.79
2023-10-23T11:20:00.089Z,12.82
2023-10-23T11:22:27.316Z,12.85
2023-10-23T11:24:54.416Z,12.83
2023-10-23T11:27:21.892Z,12.86
2023-10-23T11:29:49.337Z,12.89
2023-10-23T11:32:18.274Z,12.89
2023-10-23T11:34:48.737Z,12.93
2023-10-23T11:37:15.831Z,12.94
2023-10-23T11:39:43.547Z,12.96
2023-10-23T11:42:11.803Z,12.97
2023-10-23T11:44:41.012Z,12.99
2023-10-23T11:47:08.996Z,13.01
2023-10-23T11:49:36.526Z,13.02
2023-10-23T11:52:04.073Z,13.04
2023-10-23T11:54:31.194Z,13.06
2023-10-23T11:57:00.344Z,13.08
2023-10-23T11:59:28.179Z,13.10
2023-10-23T12:01:59.429Z,13.09
2023-10-23T12:04:26.727Z,13.14
2023-10-23T12:06:53.897Z,13.16
2023-10-23T12:09:20.921Z,13.20
2023-10-23T12:11:47.897Z,13.25
2023-10-23T12:14:14.872Z,13.28
2023-10-23T12:16:41.901Z,13.30
2023-10-23T12:19:10.663Z,13.35
2023-10-23T12:21:38.375Z,13.39
2023-10-23T12:28:11.800Z,13.55
2023-10-23T12:30:38.854Z,13.62
2023-10-23T12:33:19.096Z,13.66
2023-10-23T12:35:53.230Z,13.71
2023-10-23T12:38:20.230Z,13.74
2023-10-23T12:40:49.700Z,13.79
2023-10-23T12:43:16.819Z,13.81
2023-10-23T12:45:44.055Z,13.82
2023-10-23T12:48:11.716Z,13.83
2023-10-23T12:50:39.080Z,13.82
2023-10-23T12:53:06.593Z,13.83
2023-10-23T12:55:33.668Z,13.86
2023-10-23T12:58:03.886Z,13.91
2023-10-23T13:00:34.150Z,13.94
2023-10-23T13:03:01.204Z,13.96
2023-10-23T13:05:28.286Z,13.99
2023-10-23T13:07:55.756Z,14.01
2023-10-23T13:10:22.801Z,14.00
2023-10-23T13:12:49.829Z,14.00
2023-10-23T13:15:22.268Z,14.00
2023-10-23T13:17:49.416Z,13.99
2023-10-23T13:20:51.637Z,14.02
2023-10-23T13:23:03.931Z,13.98
2023-10-23T13:25:31.016Z,13.97
2023-10-23T13:27:58.081Z,13.97
2023-10-23T13:30:25.236Z,13.98
2023-10-23T13:32:52.380Z,13.97
2023-10-23T13:35:19.541Z,13.97
2023-10-23T13:37:46.875Z,13.99
2023-10-23T13:40:14.049Z,14.01
2023-10-23T13:42:41.120Z,14.03
2023-10-23T13:45:09.077Z,14.06
2023-10-23T13:47:36.173Z,14.04
2023-10-23T13:50:03.212Z,14.06
2023-10-23T13:52:30.314Z,14.08
2023-10-23T13:54:57.567Z,14.05
2023-10-23T13:57:26.085Z,14.07
2023-10-23T13:59:53.149Z,14.07
2023-10-23T14:02:20.451Z,14.07
2023-10-23T14:04:49.509Z,14.04
2023-10-23T14:07:16.684Z,14.00
2023-10-23T14:09:47.211Z,13.90
2023-10-23T14:12:17.160Z,13.80
2023-10-23T14:14:44.479Z,13.74
2023-10-23T14:17:11.549Z,13.68
2023-10-23T14:19:47.984Z,13.62
2023-10-23T14:22:17.667Z,13.57
2023-10-23T14:24:44.818Z,13.51
2023-10-23T14:27:11.936Z,13.46
2023-10-23T14:29:39.139Z,13.44
2023-10-23T14:32:07.345Z,13.42
2023-10-23T14:34:34.486Z,13.40
2023-10-23T14:37:01.853Z,13.38
2023-10-23T14:39:29.125Z,13.32
2023-10-23T14:41:56.740Z,13.32
2023-10-23T14:44:32.926Z,13.31
2023-10-23T14:47:00.017Z,13.26
2023-10-23T14:49:27.704Z,13.26
2023-10-23T14:51:55.035Z,13.26
2023-10-23T14:54:22.162Z,13.25
2023-10-23T14:56:50.945Z,13.25
2023-10-23T14:59:18.541Z,13.24
2023-10-23T15:01:52.174Z,13.23
2023-10-23T15:04:19.309Z,13.22
2023-10-23T15:06:46.416Z,13.22
2023-10-23T15:09:13.403Z,13.22
2023-10-23T15:11:40.382Z,13.21
2023-10-23T15:14:08.268Z,13.19
2023-10-23T15:16:36.999Z,13.17
2023-10-23T15:19:04.770Z,13.15
2023-10-23T15:21:31.885Z,13.14
2023-10-23T15:23:59.655Z,13.13
2023-10-23T15:26:26.880Z,13.10
2023-10-23T15:28:54.342Z,13.09
2023-10-23T15:31:21.423Z,13.07
2023-10-23T15:33:48.520Z,13.06
2023-10-23T15:36:15.560Z,13.07
2023-10-23T15:38:43.130Z,13.07
2023-10-23T15:41:12.840Z,13.04
2023-10-23T15:43:41.755Z,13.05
2023-10-23T15:46:14.775Z,13.05
2023-10-23T15:48:42.510Z,13.06
2023-10-23T15:51:10.280Z,13.04
2023-10-23T15:53:37.668Z,13.03
2023-10-23T15:56:05.211Z,13.03
2023-10-23T15:58:33.184Z,12.99
2023-10-23T16:01:04.561Z,12.99
2023-10-23T16:03:35.343Z,13.00
2023-10-23T16:06:04.606Z,12.97
2023-10-23T16:08:31.671Z,12.95
2023-10-23T16:11:00.850Z,12.96
2023-10-23T16:13:32.005Z,12.97
2023-10-23T16:16:15.886Z,12.97
2023-10-23T16:18:45.440Z,12.98
2023-10-23T16:21:15.158Z,12.97
2023-10-23T16:23:42.536Z,12.97
2023-10-23T16:26:09.719Z,12.97
2023-10-23T16:28:36.854Z,12.98
2023-10-23T16:31:04.259Z,12.98
2023-10-23T16:33:31.367Z,12.99
2023-10-23T16:35:58.356Z,13.00
2023-10-23T16:38:25.442Z,12.98
2023-10-23T16:40:52.489Z,12.99
2023-10-23T16:43:20.050Z,13.00
2023-10-23T16:45:47.181Z,13.01
2023-10-23T16:48:14.301Z,13.00
2023-10-23T16:50:41.886Z,13.01
2023-10-23T16:53:08.908Z,13.00
2023-10-23T16:55:38.917Z,12.99
2023-10-23T16:58:05.903Z,12.98
2023-10-23T17:00:33.256Z,12.98
2023-10-23T17:03:02.764Z,12.94
2023-10-23T17:05:29.893Z,12.95
2023-10-23T17:07:57.225Z,12.93
2023-10-23T17:10:24.245Z,12.92
2023-10-23T17:12:51.302Z,12.90
2023-10-23T17:15:18.427Z,12.90
2023-10-23T17:17:45.450Z,12.89
2023-10-23T17:20:12.732Z,12.90
2023-10-23T17:22:39.938Z,12.90
2023-10-23T17:25:08.948Z,12.88
2023-10-23T17:27:36.680Z,12.88
2023-10-23T17:30:04.343Z,12.88
2023-10-23T17:32:31.852Z,12.87
2023-10-23T17:34:59.011Z,12.87
2023-10-23T17:37:26.022Z,12.86
2023-10-23T17:39:53.060Z,12.87
2023-10-23T17:42:20.074Z,12.87
2023-10-23T17:44:47.267Z,12.85
2023-10-23T17:47:14.516Z,12.86
2023-10-23T17:49:41.851Z,12.85
2023-10-23T17:52:10.177Z,12.85
2023-10-23T17:54:38.587Z,12.85
2023-10-23T17:57:05.818Z,12.84
2023-10-23T17:59:34.513Z,12.85
2023-10-23T18:02:01.749Z,12.83
2023-10-23T18:04:29.069Z,12.86
2023-10-23T18:06:56.128Z,12.86
2023-10-23T18:09:23.204Z,12.86
2023-10-23T18:11:50.218Z,12.85
2023-10-23T18:14:17.242Z,12.86
2023-10-23T18:16:46.514Z,12.88
2023-10-23T18:19:16.142Z,12.88
2023-10-23T18:21:44.062Z,12.87
2023-10-23T18:24:13.396Z,12.87
2023-10-23T18:26:40.407Z,12.87
2023-10-23T18:29:07.528Z,12.86
2023-10-23T18:31:34.734Z,12.85
2023-10-23T18:34:01.822Z,12.83
2023-10-23T18:36:29.255Z,12.83
2023-10-23T18:38:56.441Z,12.81
2023-10-23T18:41:23.477Z,12.80
2023-10-23T18:43:50.588Z,12.79
2023-10-23T18:46:17.819Z,12.78
2023-10-23T18:48:45.223Z,12.79
2023-10-23T18:51:13.563Z,12.78
2023-10-23T18:53:43.317Z,12.77
2023-10-23T18:56:10.580Z,12.77
2023-10-23T18:58:37.589Z,12.76
2023-10-23T19:01:08.965Z,12.76
2023-10-23T19:03:38.489Z,12.74
2023-10-23T19:06:06.461Z,12.73
2023-10-23T19:08:33.533Z,12.72
2023-10-23T19:11:00.727Z,12.72
2023-10-23T19:13:27.978Z,12.71
2023-10-23T19:15:59.988Z,12.71
2023-10-23T19:18:30.154Z,12.69
2023-10-23T19:21:04.084Z,12.69
2023-10-23T19:23:31.068Z,12.68
2023-10-23T19:25:58.157Z,12.68
2023-10-23T19:28:25.783Z,12.68
2023-10-23T19:30:54.668Z,12.68
2023-10-23T19:33:22.432Z,12.67
2023-10-23T19:35:49.824Z,12.69
2023-10-23T19:38:20.924Z,12.70
2023-10-23T19:40:51.989Z,12.71
2023-10-23T19:43:26.065Z,12.73
2023-10-23T19:45:53.465Z,12.73
2023-10-23T19:48:21.040Z,12.73
2023-10-23T19:50:48.793Z,12.73
2023-10-23T19:53:16.895Z,12.72
2023-10-23T19:55:46.841Z,12.71
2023-10-23T19:58:16.666Z,12.67
2023-10-23T20:00:43.838Z,12.65
2023-10-23T20:03:11.416Z,12.62
2023-10-23T20:05:38.646Z,12.61
2023-10-23T20:08:07.065Z,12.59
2023-10-23T20:10:34.429Z,12.55
2023-10-23T20:13:01.636Z,12.54
2023-10-23T20:15:30.508Z,12.54
2023-10-23T20:17:57.724Z,12.53
2023-10-23T20:20:26.623Z,12.50
2023-10-23T20:22:53.848Z,12.47
2023-10-23T20:25:21.319Z,12.45
2023-10-23T20:27:48.519Z,12.46
2023-10-23T20:30:15.632Z,12.47
2023-10-23T20:32:42.864Z,12.46
2023-10-23T20:35:10.209Z,12.46
2023-10-23T20:37:37.478Z,12.45
2023-10-23T20:40:06.187Z,12.44
2023-10-23T20:42:35.454Z,12.43
2023-10-23T20:45:03.897Z,12.43
2023-10-23T20:47:33.389Z,12.43
2023-10-23T20:50:00.757Z,12.42
2023-10-23T20:52:29.465Z,12.44
2023-10-23T20:54:57.546Z,12.45
2023-10-23T20:57:25.148Z,12.47
2023-10-23T20:59:52.353Z,12.47
2023-10-23T21:02:19.464Z,12.48
2023-10-23T21:04:46.526Z,12.50
2023-10-23T21:07:13.605Z,12.51
2023-10-23T21:09:40.878Z,12.53
2023-10-23T21:12:08.299Z,12.53
2023-10-23T21:14:50.004Z,12.53
2023-10-23T21:17:18.147Z,12.54
2023-10-23T21:19:45.240Z,12.54
2023-10-23T21:22:12.414Z,12.53
2023-10-23T21:24:39.512Z,12.54
2023-10-23T21:27:07.389Z,12.51
2023-10-23T21:29:34.461Z,12.50
2023-10-23T21:32:01.769Z,12.48
2023-10-23T21:34:28.903Z,12.47
2023-10-23T21:36:56.059Z,12.47
2023-10-23T21:39:23.182Z,12.47
2023-10-23T21:41:50.258Z,12.46
2023-10-23T21:44:17.276Z,12.47
2023-10-23T21:46:44.311Z,12.48
2023-10-23T21:49:11.826Z,12.52
2023-10-23T21:51:39.409Z,12.53
2023-10-23T21:54:07.065Z,12.54
2023-10-23T21:57:14.984Z,12.56
2023-10-23T21:59:22.554Z,12.60
2023-10-23T22:01:53.414Z,12.63
2023-10-23T22:04:21.555Z,12.64
2023-10-23T22:06:49.236Z,12.67
2023-10-23T22:09:16.785Z,12.68
2023-10-23T22:11:44.538Z,12.69
2023-10-23T22:14:12.143Z,12.69
2023-10-23T22:16:39.305Z,12.71
2023-10-23T22:19:06.544Z,12.73
2023-10-23T22:21:33.717Z,12.76
2023-10-23T22:24:00.711Z,12.78
2023-10-23T22:26:30.277Z,12.83
2023-10-23T22:28:57.248Z,12.87
2023-10-23T22:31:24.325Z,12.87
2023-10-23T22:33:51.341Z,12.88
2023-10-23T22:36:18.344Z,12.91
2023-10-23T22:38:45.351Z,12.95
2023-10-23T22:41:12.359Z,12.98
2023-10-23T22:43:39.394Z,13.00
2023-10-23T22:46:06.522Z,13.05
2023-10-23T22:48:33.638Z,13.06
2023-10-23T22:51:01.409Z,13.08
2023-10-23T22:53:28.989Z,13.12
2023-10-23T22:55:57.152Z,13.17
2023-10-23T22:58:37.505Z,13.22
2023-10-23T23:01:04.834Z,13.23
2023-10-23T23:03:32.824Z,13.22
2023-10-23T23:06:09.820Z,13.21
2023-10-23T23:08:43.515Z,13.20
2023-10-23T23:11:10.984Z,13.21
2023-10-23T23:13:38.314Z,13.26
2023-10-23T23:16:06.653Z,13.30
2023-10-23T23:18:38.438Z,13.37
2023-10-23T23:21:10.495Z,13.41
2023-10-23T23:23:37.571Z,13.43
2023-10-23T23:26:05.839Z,13.44
2023-10-23T23:28:34.696Z,13.44
2023-10-23T23:31:01.822Z,13.47
2023-10-23T23:33:30.130Z,13.52
2023-10-23T23:35:57.234Z,13.56
2023-10-23T23:38:24.457Z,13.60
2023-10-23T23:40:52.908Z,13.63
2023-10-23T23:43:19.942Z,13.65
2023-10-23T23:45:46.989Z,13.66
2023-10-23T23:48:15.445Z,13.67
2023-10-23T23:50:42.569Z,13.67
2023-10-23T23:53:09.541Z,13.69
2023-10-23T23:55:36.550Z,13.67
2023-10-23T23:58:03.572Z,13.63
